sensor_id;sensor_type;location;lat;lon;timestamp;P1;durP1;ratioP1;P2;durP2;ratioP2
11039;SDS011;5573;49.592;8.662;2023-08-06T00:01:12;214.77;;;203.75;;
11039;SDS011;5573;49.592;8.662;2023-08-06T00:03:41;214.82;;;204.02;;
11039;SDS011;5573;49.592;8.662;2023-08-06T00:06:09;219.07;;;207.68;;
11039;SDS011;5573;49.592;8.662;2023-08-06T00:08:38;219.20;;;207.98;;
11039;SDS011;5573;49.592;8.662;2023-08-06T00:11:06;219.68;;;208.57;;
11039;SDS011;5573;49.592;8.662;2023-08-06T00:13:34;227.85;;;216.18;;
11039;SDS011;5573;49.592;8.662;2023-08-06T00:16:09;201.52;;;191.20;;
11039;SDS011;5573;49.592;8.662;2023-08-06T00:18:38;217.75;;;206.60;;
11039;SDS011;5573;49.592;8.662;2023-08-06T00:21:06;202.57;;;192.07;;
11039;SDS011;5573;49.592;8.662;2023-08-06T00:23:33;221.88;;;210.50;;
11039;SDS011;5573;49.592;8.662;2023-08-06T00:26:03;208.45;;;197.55;;
11039;SDS011;5573;49.592;8.662;2023-08-06T00:28:31;202.23;;;191.68;;
11039;SDS011;5573;49.592;8.662;2023-08-06T00:30:59;218.70;;;207.52;;
11039;SDS011;5573;49.592;8.662;2023-08-06T00:33:26;232.70;;;220.88;;
11039;SDS011;5573;49.592;8.662;2023-08-06T00:35:54;206.32;;;195.85;;
11039;SDS011;5573;49.592;8.662;2023-08-06T00:38:22;212.30;;;201.50;;
11039;SDS011;5573;49.592;8.662;2023-08-06T00:40:50;217.60;;;206.55;;
11039;SDS011;5573;49.592;8.662;2023-08-06T00:43:19;209.13;;;198.45;;
11039;SDS011;5573;49.592;8.662;2023-08-06T00:45:47;200.18;;;189.77;;
11039;SDS011;5573;49.592;8.662;2023-08-06T00:48:15;207.43;;;196.82;;
11039;SDS011;5573;49.592;8.662;2023-08-06T00:50:45;203.90;;;193.55;;
11039;SDS011;5573;49.592;8.662;2023-08-06T00:53:13;201.30;;;190.77;;
11039;SDS011;5573;49.592;8.662;2023-08-06T00:55:41;185.52;;;175.90;;
11039;SDS011;5573;49.592;8.662;2023-08-06T00:58:12;178.95;;;169.48;;
11039;SDS011;5573;49.592;8.662;2023-08-06T01:00:41;178.77;;;169.48;;
11039;SDS011;5573;49.592;8.662;2023-08-06T01:03:09;184.80;;;175.23;;
11039;SDS011;5573;49.592;8.662;2023-08-06T01:05:37;167.75;;;159.18;;
11039;SDS011;5573;49.592;8.662;2023-08-06T01:08:10;164.43;;;155.85;;
11039;SDS011;5573;49.592;8.662;2023-08-06T01:10:50;164.38;;;155.77;;
11039;SDS011;5573;49.592;8.662;2023-08-06T01:13:30;171.85;;;162.95;;
11039;SDS011;5573;49.592;8.662;2023-08-06T01:16:02;174.02;;;164.90;;
11039;SDS011;5573;49.592;8.662;2023-08-06T01:18:32;175.15;;;166.10;;
11039;SDS011;5573;49.592;8.662;2023-08-06T01:21:01;185.15;;;175.73;;
11039;SDS011;5573;49.592;8.662;2023-08-06T01:23:29;183.75;;;174.32;;
11039;SDS011;5573;49.592;8.662;2023-08-06T01:25:59;184.82;;;175.43;;
11039;SDS011;5573;49.592;8.662;2023-08-06T01:28:33;198.45;;;188.43;;
11039;SDS011;5573;49.592;8.662;2023-08-06T01:31:08;193.57;;;183.65;;
11039;SDS011;5573;49.592;8.662;2023-08-06T01:33:43;209.65;;;199.02;;
11039;SDS011;5573;49.592;8.662;2023-08-06T01:36:15;203.68;;;193.25;;
11039;SDS011;5573;49.592;8.662;2023-08-06T01:38:44;195.57;;;185.70;;
11039;SDS011;5573;49.592;8.662;2023-08-06T01:41:12;204.90;;;194.50;;
11039;SDS011;5573;49.592;8.662;2023-08-06T01:43:40;215.20;;;204.10;;
11039;SDS011;5573;49.592;8.662;2023-08-06T01:46:07;211.38;;;200.70;;
11039;SDS011;5573;49.592;8.662;2023-08-06T01:48:35;202.35;;;192.00;;
11039;SDS011;5573;49.592;8.662;2023-08-06T01:51:03;210.23;;;199.52;;
11039;SDS011;5573;49.592;8.662;2023-08-06T01:53:33;214.30;;;203.52;;
11039;SDS011;5573;49.592;8.662;2023-08-06T01:56:01;202.85;;;192.57;;
11039;SDS011;5573;49.592;8.662;2023-08-06T01:58:29;213.35;;;202.70;;
11039;SDS011;5573;49.592;8.662;2023-08-06T02:00:57;208.60;;;198.13;;
11039;SDS011;5573;49.592;8.662;2023-08-06T02:03:26;230.52;;;219.02;;
11039;SDS011;5573;49.592;8.662;2023-08-06T02:05:54;225.13;;;213.82;;
11039;SDS011;5573;49.592;8.662;2023-08-06T02:08:22;223.30;;;211.90;;
11039;SDS011;5573;49.592;8.662;2023-08-06T02:10:51;219.35;;;208.32;;
11039;SDS011;5573;49.592;8.662;2023-08-06T02:13:20;223.68;;;212.50;;
11039;SDS011;5573;49.592;8.662;2023-08-06T02:15:48;231.23;;;219.55;;
11039;SDS011;5573;49.592;8.662;2023-08-06T02:18:16;218.90;;;207.88;;
11039;SDS011;5573;49.592;8.662;2023-08-06T02:20:43;211.98;;;201.18;;
11039;SDS011;5573;49.592;8.662;2023-08-06T02:23:21;218.57;;;207.48;;
11039;SDS011;5573;49.592;8.662;2023-08-06T02:25:57;216.50;;;205.40;;
11039;SDS011;5573;49.592;8.662;2023-08-06T02:28:27;203.25;;;192.82;;
11039;SDS011;5573;49.592;8.662;2023-08-06T02:30:55;221.75;;;210.68;;
11039;SDS011;5573;49.592;8.662;2023-08-06T02:33:23;214.70;;;203.85;;
11039;SDS011;5573;49.592;8.662;2023-08-06T02:35:51;201.95;;;191.63;;
11039;SDS011;5573;49.592;8.662;2023-08-06T02:38:27;224.00;;;212.77;;
11039;SDS011;5573;49.592;8.662;2023-08-06T02:40:56;210.40;;;199.73;;
11039;SDS011;5573;49.592;8.662;2023-08-06T02:43:25;215.55;;;204.73;;
11039;SDS011;5573;49.592;8.662;2023-08-06T02:45:56;214.68;;;203.75;;
11039;SDS011;5573;49.592;8.662;2023-08-06T02:48:24;218.95;;;207.85;;
11039;SDS011;5573;49.592;8.662;2023-08-06T02:50:52;199.93;;;189.75;;
11039;SDS011;5573;49.592;8.662;2023-08-06T02:53:21;202.57;;;192.40;;
11039;SDS011;5573;49.592;8.662;2023-08-06T02:55:49;197.93;;;187.95;;
11039;SDS011;5573;49.592;8.662;2023-08-06T02:58:25;193.18;;;183.30;;
11039;SDS011;5573;49.592;8.662;2023-08-06T03:01:03;185.70;;;176.30;;
11039;SDS011;5573;49.592;8.662;2023-08-06T03:03:41;181.10;;;171.85;;
11039;SDS011;5573;49.592;8.662;2023-08-06T03:06:09;181.90;;;172.70;;
11039;SDS011;5573;49.592;8.662;2023-08-06T03:08:44;179.75;;;170.55;;
11039;SDS011;5573;49.592;8.662;2023-08-06T03:11:11;191.93;;;182.15;;
11039;SDS011;5573;49.592;8.662;2023-08-06T03:13:42;191.25;;;181.52;;
11039;SDS011;5573;49.592;8.662;2023-08-06T03:16:10;174.93;;;165.77;;
11039;SDS011;5573;49.592;8.662;2023-08-06T03:18:38;191.20;;;181.48;;
11039;SDS011;5573;49.592;8.662;2023-08-06T03:21:08;166.07;;;157.52;;
11039;SDS011;5573;49.592;8.662;2023-08-06T03:23:36;178.95;;;169.80;;
11039;SDS011;5573;49.592;8.662;2023-08-06T03:26:05;163.73;;;155.15;;
11039;SDS011;5573;49.592;8.662;2023-08-06T03:28:35;166.20;;;157.57;;
11039;SDS011;5573;49.592;8.662;2023-08-06T03:31:05;163.38;;;154.82;;
11039;SDS011;5573;49.592;8.662;2023-08-06T03:33:40;153.30;;;145.35;;
11039;SDS011;5573;49.592;8.662;2023-08-06T03:36:13;158.13;;;150.02;;
11039;SDS011;5573;49.592;8.662;2023-08-06T03:38:42;146.52;;;138.95;;
11039;SDS011;5573;49.592;8.662;2023-08-06T03:41:12;155.80;;;147.65;;
11039;SDS011;5573;49.592;8.662;2023-08-06T03:43:40;154.90;;;146.88;;
11039;SDS011;5573;49.592;8.662;2023-08-06T03:46:14;150.30;;;142.45;;
11039;SDS011;5573;49.592;8.662;2023-08-06T03:48:43;156.48;;;148.30;;
11039;SDS011;5573;49.592;8.662;2023-08-06T03:51:11;149.02;;;141.30;;
11039;SDS011;5573;49.592;8.662;2023-08-06T03:53:43;167.82;;;159.07;;
11039;SDS011;5573;49.592;8.662;2023-08-06T03:56:10;164.27;;;155.65;;
11039;SDS011;5573;49.592;8.662;2023-08-06T03:58:39;160.52;;;152.25;;
11039;SDS011;5573;49.592;8.662;2023-08-06T04:01:07;157.13;;;148.93;;
11039;SDS011;5573;49.592;8.662;2023-08-06T04:03:47;165.93;;;157.40;;
11039;SDS011;5573;49.592;8.662;2023-08-06T04:06:15;161.23;;;152.85;;
11039;SDS011;5573;49.592;8.662;2023-08-06T04:08:43;161.52;;;153.15;;
11039;SDS011;5573;49.592;8.662;2023-08-06T04:11:11;161.27;;;152.85;;
11039;SDS011;5573;49.592;8.662;2023-08-06T04:13:42;162.50;;;154.05;;
11039;SDS011;5573;49.592;8.662;2023-08-06T04:16:10;154.65;;;146.68;;
11039;SDS011;5573;49.592;8.662;2023-08-06T04:18:38;151.77;;;143.93;;
11039;SDS011;5573;49.592;8.662;2023-08-06T04:21:07;159.32;;;151.00;;
11039;SDS011;5573;49.592;8.662;2023-08-06T04:23:36;156.02;;;147.95;;
11039;SDS011;5573;49.592;8.662;2023-08-06T04:26:06;152.18;;;144.05;;
11039;SDS011;5573;49.592;8.662;2023-08-06T04:28:35;158.57;;;150.32;;
11039;SDS011;5573;49.592;8.662;2023-08-06T04:31:03;159.88;;;151.60;;
11039;SDS011;5573;49.592;8.662;2023-08-06T04:33:32;150.35;;;142.50;;
11039;SDS011;5573;49.592;8.662;2023-08-06T04:36:09;176.60;;;167.32;;
11039;SDS011;5573;49.592;8.662;2023-08-06T04:38:37;172.52;;;163.50;;
11039;SDS011;5573;49.592;8.662;2023-08-06T04:41:04;178.00;;;168.75;;
11039;SDS011;5573;49.592;8.662;2023-08-06T04:43:34;171.10;;;162.27;;
11039;SDS011;5573;49.592;8.662;2023-08-06T04:46:02;178.35;;;169.00;;
11039;SDS011;5573;49.592;8.662;2023-08-06T04:48:30;186.80;;;177.00;;
11039;SDS011;5573;49.592;8.662;2023-08-06T04:50:57;186.88;;;177.15;;
11039;SDS011;5573;49.592;8.662;2023-08-06T04:53:26;197.63;;;187.48;;
11039;SDS011;5573;49.592;8.662;2023-08-06T04:55:54;194.65;;;184.65;;
11039;SDS011;5573;49.592;8.662;2023-08-06T04:58:22;200.13;;;189.85;;
11039;SDS011;5573;49.592;8.662;2023-08-06T05:00:50;188.18;;;178.38;;
11039;SDS011;5573;49.592;8.662;2023-08-06T05:03:18;179.48;;;170.30;;
11039;SDS011;5573;49.592;8.662;2023-08-06T05:05:46;199.80;;;189.68;;
11039;SDS011;5573;49.592;8.662;2023-08-06T05:08:14;204.25;;;193.73;;
11039;SDS011;5573;49.592;8.662;2023-08-06T05:10:44;197.50;;;187.45;;
11039;SDS011;5573;49.592;8.662;2023-08-06T05:13:12;200.70;;;190.63;;
11039;SDS011;5573;49.592;8.662;2023-08-06T05:15:41;202.63;;;192.15;;
11039;SDS011;5573;49.592;8.662;2023-08-06T05:18:11;217.15;;;205.98;;
11039;SDS011;5573;49.592;8.662;2023-08-06T05:20:40;218.68;;;207.50;;
11039;SDS011;5573;49.592;8.662;2023-08-06T05:23:09;201.40;;;191.10;;
11039;SDS011;5573;49.592;8.662;2023-08-06T05:25:37;199.63;;;189.48;;
11039;SDS011;5573;49.592;8.662;2023-08-06T05:28:06;196.85;;;186.85;;
11039;SDS011;5573;49.592;8.662;2023-08-06T05:30:38;210.02;;;199.32;;
11039;SDS011;5573;49.592;8.662;2023-08-06T05:33:06;200.02;;;189.75;;
11039;SDS011;5573;49.592;8.662;2023-08-06T05:35:34;207.07;;;196.45;;
11039;SDS011;5573;49.592;8.662;2023-08-06T05:38:02;195.38;;;185.43;;
11039;SDS011;5573;49.592;8.662;2023-08-06T05:40:32;207.20;;;196.65;;
11039;SDS011;5573;49.592;8.662;2023-08-06T05:43:00;208.60;;;197.80;;
11039;SDS011;5573;49.592;8.662;2023-08-06T05:45:29;206.52;;;196.18;;
11039;SDS011;5573;49.592;8.662;2023-08-06T05:47:57;201.15;;;190.90;;
11039;SDS011;5573;49.592;8.662;2023-08-06T05:50:26;216.75;;;205.82;;
11039;SDS011;5573;49.592;8.662;2023-08-06T05:52:53;203.57;;;193.25;;
11039;SDS011;5573;49.592;8.662;2023-08-06T05:55:23;209.15;;;198.50;;
11039;SDS011;5573;49.592;8.662;2023-08-06T05:57:51;199.25;;;189.07;;
11039;SDS011;5573;49.592;8.662;2023-08-06T06:00:19;206.27;;;195.68;;
11039;SDS011;5573;49.592;8.662;2023-08-06T06:02:49;188.95;;;179.25;;
11039;SDS011;5573;49.592;8.662;2023-08-06T06:05:17;199.80;;;189.73;;
11039;SDS011;5573;49.592;8.662;2023-08-06T06:07:44;185.45;;;175.80;;
11039;SDS011;5573;49.592;8.662;2023-08-06T06:10:12;191.13;;;181.25;;
11039;SDS011;5573;49.592;8.662;2023-08-06T06:12:40;180.13;;;170.88;;
11039;SDS011;5573;49.592;8.662;2023-08-06T06:15:08;188.35;;;178.65;;
11039;SDS011;5573;49.592;8.662;2023-08-06T06:17:37;165.95;;;157.25;;
11039;SDS011;5573;49.592;8.662;2023-08-06T06:20:07;169.98;;;161.27;;
11039;SDS011;5573;49.592;8.662;2023-08-06T06:22:35;171.57;;;162.60;;
11039;SDS011;5573;49.592;8.662;2023-08-06T06:25:03;174.05;;;165.10;;
11039;SDS011;5573;49.592;8.662;2023-08-06T06:27:31;159.73;;;151.43;;
11039;SDS011;5573;49.592;8.662;2023-08-06T06:29:59;180.60;;;171.20;;
11039;SDS011;5573;49.592;8.662;2023-08-06T06:32:27;166.55;;;158.05;;
11039;SDS011;5573;49.592;8.662;2023-08-06T06:34:55;174.85;;;165.82;;
11039;SDS011;5573;49.592;8.662;2023-08-06T06:37:24;172.02;;;163.10;;
11039;SDS011;5573;49.592;8.662;2023-08-06T06:39:52;176.95;;;167.70;;
11039;SDS011;5573;49.592;8.662;2023-08-06T06:42:20;182.48;;;173.05;;
11039;SDS011;5573;49.592;8.662;2023-08-06T06:44:51;170.50;;;161.57;;
11039;SDS011;5573;49.592;8.662;2023-08-06T06:47:19;176.57;;;167.32;;
11039;SDS011;5573;49.592;8.662;2023-08-06T06:49:47;173.05;;;163.88;;
11039;SDS011;5573;49.592;8.662;2023-08-06T06:52:15;193.82;;;183.93;;
11039;SDS011;5573;49.592;8.662;2023-08-06T06:54:44;173.90;;;164.52;;
11039;SDS011;5573;49.592;8.662;2023-08-06T06:57:12;164.07;;;155.50;;
11039;SDS011;5573;49.592;8.662;2023-08-06T06:59:40;178.20;;;168.90;;
11039;SDS011;5573;49.592;8.662;2023-08-06T07:02:08;170.77;;;161.98;;
11039;SDS011;5573;49.592;8.662;2023-08-06T07:04:37;175.40;;;166.23;;
11039;SDS011;5573;49.592;8.662;2023-08-06T07:07:05;179.63;;;170.15;;
11039;SDS011;5573;49.592;8.662;2023-08-06T07:09:33;189.05;;;179.30;;
11039;SDS011;5573;49.592;8.662;2023-08-06T07:12:03;173.65;;;164.63;;
11039;SDS011;5573;49.592;8.662;2023-08-06T07:14:31;172.65;;;163.57;;
11039;SDS011;5573;49.592;8.662;2023-08-06T07:16:59;180.75;;;171.15;;
11039;SDS011;5573;49.592;8.662;2023-08-06T07:19:27;164.55;;;155.93;;
11039;SDS011;5573;49.592;8.662;2023-08-06T07:21:55;174.57;;;165.45;;
11039;SDS011;5573;49.592;8.662;2023-08-06T07:24:23;183.30;;;173.75;;
11039;SDS011;5573;49.592;8.662;2023-08-06T07:26:50;182.20;;;172.73;;
11039;SDS011;5573;49.592;8.662;2023-08-06T07:29:20;182.90;;;173.35;;
11039;SDS011;5573;49.592;8.662;2023-08-06T07:31:48;174.77;;;165.77;;
11039;SDS011;5573;49.592;8.662;2023-08-06T07:34:17;177.38;;;168.18;;
11039;SDS011;5573;49.592;8.662;2023-08-06T07:36:45;171.40;;;162.48;;
11039;SDS011;5573;49.592;8.662;2023-08-06T07:39:13;171.50;;;162.57;;
11039;SDS011;5573;49.592;8.662;2023-08-06T07:41:43;172.20;;;163.35;;
11039;SDS011;5573;49.592;8.662;2023-08-06T07:44:12;183.43;;;173.95;;
11039;SDS011;5573;49.592;8.662;2023-08-06T07:46:41;183.85;;;174.43;;
11039;SDS011;5573;49.592;8.662;2023-08-06T07:49:09;191.18;;;181.40;;
11039;SDS011;5573;49.592;8.662;2023-08-06T07:51:38;180.13;;;170.75;;
11039;SDS011;5573;49.592;8.662;2023-08-06T07:54:06;171.35;;;162.48;;
11039;SDS011;5573;49.592;8.662;2023-08-06T07:56:34;180.50;;;171.10;;
11039;SDS011;5573;49.592;8.662;2023-08-06T07:59:03;177.40;;;168.13;;
11039;SDS011;5573;49.592;8.662;2023-08-06T08:01:30;187.10;;;177.30;;
11039;SDS011;5573;49.592;8.662;2023-08-06T08:04:00;176.57;;;167.45;;
11039;SDS011;5573;49.592;8.662;2023-08-06T08:06:28;176.95;;;167.65;;
11039;SDS011;5573;49.592;8.662;2023-08-06T08:08:56;190.10;;;180.38;;
11039;SDS011;5573;49.592;8.662;2023-08-06T08:11:25;195.32;;;185.32;;
11039;SDS011;5573;49.592;8.662;2023-08-06T08:13:53;193.40;;;183.52;;
11039;SDS011;5573;49.592;8.662;2023-08-06T08:16:21;201.30;;;190.85;;
11039;SDS011;5573;49.592;8.662;2023-08-06T08:18:49;194.55;;;184.63;;
11039;SDS011;5573;49.592;8.662;2023-08-06T08:21:18;200.50;;;190.32;;
11039;SDS011;5573;49.592;8.662;2023-08-06T08:23:46;201.48;;;191.10;;
11039;SDS011;5573;49.592;8.662;2023-08-06T08:26:14;194.57;;;184.57;;
11039;SDS011;5573;49.592;8.662;2023-08-06T08:28:42;186.52;;;177.02;;
11039;SDS011;5573;49.592;8.662;2023-08-06T08:31:10;198.73;;;188.52;;
11039;SDS011;5573;49.592;8.662;2023-08-06T08:33:38;198.52;;;188.30;;
11039;SDS011;5573;49.592;8.662;2023-08-06T08:36:06;195.98;;;185.95;;
11039;SDS011;5573;49.592;8.662;2023-08-06T08:38:37;186.63;;;176.95;;
11039;SDS011;5573;49.592;8.662;2023-08-06T08:41:05;184.55;;;174.98;;
11039;SDS011;5573;49.592;8.662;2023-08-06T08:43:33;194.95;;;184.95;;
11039;SDS011;5573;49.592;8.662;2023-08-06T08:46:01;204.60;;;194.35;;
11039;SDS011;5573;49.592;8.662;2023-08-06T08:48:31;198.18;;;188.05;;
11039;SDS011;5573;49.592;8.662;2023-08-06T08:50:59;189.35;;;179.70;;
11039;SDS011;5573;49.592;8.662;2023-08-06T08:53:28;181.73;;;172.40;;
11039;SDS011;5573;49.592;8.662;2023-08-06T08:55:57;196.00;;;185.90;;
11039;SDS011;5573;49.592;8.662;2023-08-06T08:58:26;186.80;;;177.18;;
11039;SDS011;5573;49.592;8.662;2023-08-06T09:00:53;196.25;;;186.30;;
11039;SDS011;5573;49.592;8.662;2023-08-06T09:03:22;194.05;;;183.93;;
11039;SDS011;5573;49.592;8.662;2023-08-06T09:05:52;193.20;;;183.38;;
11039;SDS011;5573;49.592;8.662;2023-08-06T09:08:23;192.55;;;182.65;;
11039;SDS011;5573;49.592;8.662;2023-08-06T09:10:54;185.13;;;175.50;;
11039;SDS011;5573;49.592;8.662;2023-08-06T09:13:26;171.77;;;162.98;;
11039;SDS011;5573;49.592;8.662;2023-08-06T09:15:53;186.40;;;176.75;;
11039;SDS011;5573;49.592;8.662;2023-08-06T09:18:25;188.10;;;178.43;;
11039;SDS011;5573;49.592;8.662;2023-08-06T09:20:54;197.07;;;186.93;;
11039;SDS011;5573;49.592;8.662;2023-08-06T09:23:25;182.23;;;172.80;;
11039;SDS011;5573;49.592;8.662;2023-08-06T09:25:56;178.65;;;169.40;;
11039;SDS011;5573;49.592;8.662;2023-08-06T09:28:26;184.07;;;174.60;;
11039;SDS011;5573;49.592;8.662;2023-08-06T09:31:05;177.10;;;168.02;;
11039;SDS011;5573;49.592;8.662;2023-08-06T09:33:33;201.13;;;190.93;;
11039;SDS011;5573;49.592;8.662;2023-08-06T09:36:06;180.32;;;171.02;;
11039;SDS011;5573;49.592;8.662;2023-08-06T09:38:39;212.25;;;201.65;;
11039;SDS011;5573;49.592;8.662;2023-08-06T09:41:08;190.52;;;180.90;;
11039;SDS011;5573;49.592;8.662;2023-08-06T09:43:41;192.93;;;183.13;;
11039;SDS011;5573;49.592;8.662;2023-08-06T09:46:12;186.55;;;176.95;;
11039;SDS011;5573;49.592;8.662;2023-08-06T09:48:46;188.55;;;178.88;;
11039;SDS011;5573;49.592;8.662;2023-08-06T09:51:15;200.52;;;190.30;;
11039;SDS011;5573;49.592;8.662;2023-08-06T09:53:45;190.50;;;180.73;;
11039;SDS011;5573;49.592;8.662;2023-08-06T09:56:16;195.95;;;185.88;;
11039;SDS011;5573;49.592;8.662;2023-08-06T09:58:46;212.02;;;201.15;;
11039;SDS011;5573;49.592;8.662;2023-08-06T10:01:16;202.40;;;191.95;;
11039;SDS011;5573;49.592;8.662;2023-08-06T10:03:46;200.20;;;190.05;;
11039;SDS011;5573;49.592;8.662;2023-08-06T10:06:16;212.18;;;201.40;;
11039;SDS011;5573;49.592;8.662;2023-08-06T10:08:45;215.27;;;204.43;;
11039;SDS011;5573;49.592;8.662;2023-08-06T10:11:15;201.77;;;191.45;;
11039;SDS011;5573;49.592;8.662;2023-08-06T10:13:58;206.57;;;196.00;;
11039;SDS011;5573;49.592;8.662;2023-08-06T10:16:31;191.40;;;181.60;;
11039;SDS011;5573;49.592;8.662;2023-08-06T10:19:00;198.75;;;188.60;;
11039;SDS011;5573;49.592;8.662;2023-08-06T10:21:29;214.30;;;203.25;;
11039;SDS011;5573;49.592;8.662;2023-08-06T10:23:58;210.63;;;199.85;;
11039;SDS011;5573;49.592;8.662;2023-08-06T10:26:28;203.65;;;193.35;;
11039;SDS011;5573;49.592;8.662;2023-08-06T10:28:58;206.00;;;195.50;;
11039;SDS011;5573;49.592;8.662;2023-08-06T10:34:22;202.52;;;192.18;;
11039;SDS011;5573;49.592;8.662;2023-08-06T10:36:53;214.40;;;203.40;;
11039;SDS011;5573;49.592;8.662;2023-08-06T10:39:21;192.57;;;182.60;;
11039;SDS011;5573;49.592;8.662;2023-08-06T10:41:56;187.98;;;178.10;;
11039;SDS011;5573;49.592;8.662;2023-08-06T10:44:27;185.93;;;176.35;;
11039;SDS011;5573;49.592;8.662;2023-08-06T10:46:59;193.70;;;183.65;;
11039;SDS011;5573;49.592;8.662;2023-08-06T10:49:55;198.25;;;188.18;;
11039;SDS011;5573;49.592;8.662;2023-08-06T10:52:23;202.05;;;191.73;;
11039;SDS011;5573;49.592;8.662;2023-08-06T10:54:50;200.27;;;189.80;;
11039;SDS011;5573;49.592;8.662;2023-08-06T10:57:18;202.43;;;192.00;;
11039;SDS011;5573;49.592;8.662;2023-08-06T10:59:46;197.15;;;187.07;;
11039;SDS011;5573;49.592;8.662;2023-08-06T11:02:16;206.25;;;195.90;;
11039;SDS011;5573;49.592;8.662;2023-08-06T11:04:45;198.27;;;188.15;;
11039;SDS011;5573;49.592;8.662;2023-08-06T11:07:13;216.65;;;205.82;;
11039;SDS011;5573;49.592;8.662;2023-08-06T11:09:44;213.48;;;202.52;;
11039;SDS011;5573;49.592;8.662;2023-08-06T11:12:12;213.68;;;202.93;;
11039;SDS011;5573;49.592;8.662;2023-08-06T11:14:49;199.75;;;189.45;;
11039;SDS011;5573;49.592;8.662;2023-08-06T11:17:17;203.32;;;193.02;;
11039;SDS011;5573;49.592;8.662;2023-08-06T11:19:47;208.90;;;198.43;;
11039;SDS011;5573;49.592;8.662;2023-08-06T11:22:15;199.07;;;188.98;;
11039;SDS011;5573;49.592;8.662;2023-08-06T11:24:43;188.77;;;179.25;;
11039;SDS011;5573;49.592;8.662;2023-08-06T11:27:12;198.20;;;188.20;;
11039;SDS011;5573;49.592;8.662;2023-08-06T11:29:40;207.85;;;197.32;;
11039;SDS011;5573;49.592;8.662;2023-08-06T11:32:09;205.90;;;195.60;;
11039;SDS011;5573;49.592;8.662;2023-08-06T11:34:38;201.82;;;191.48;;
11039;SDS011;5573;49.592;8.662;2023-08-06T11:37:08;207.35;;;196.85;;
11039;SDS011;5573;49.592;8.662;2023-08-06T11:39:37;201.40;;;191.25;;
11039;SDS011;5573;49.592;8.662;2023-08-06T11:42:06;199.02;;;188.88;;
11039;SDS011;5573;49.592;8.662;2023-08-06T11:44:34;194.27;;;184.38;;
11039;SDS011;5573;49.592;8.662;2023-08-06T11:47:03;201.68;;;191.43;;
11039;SDS011;5573;49.592;8.662;2023-08-06T11:49:39;202.85;;;192.43;;
11039;SDS011;5573;49.592;8.662;2023-08-06T11:52:13;224.60;;;213.30;;
11039;SDS011;5573;49.592;8.662;2023-08-06T11:54:42;221.75;;;210.50;;
11039;SDS011;5573;49.592;8.662;2023-08-06T11:57:10;210.52;;;199.85;;
11039;SDS011;5573;49.592;8.662;2023-08-06T11:59:39;207.73;;;197.10;;
11039;SDS011;5573;49.592;8.662;2023-08-06T12:02:08;185.52;;;175.95;;
11039;SDS011;5573;49.592;8.662;2023-08-06T12:04:57;186.45;;;176.88;;
11039;SDS011;5573;49.592;8.662;2023-08-06T12:07:28;167.73;;;159.02;;
11039;SDS011;5573;49.592;8.662;2023-08-06T12:10:18;163.85;;;155.40;;
11039;SDS011;5573;49.592;8.662;2023-08-06T12:13:07;173.20;;;164.27;;
11039;SDS011;5573;49.592;8.662;2023-08-06T12:15:35;193.55;;;183.75;;
11039;SDS011;5573;49.592;8.662;2023-08-06T12:18:03;189.35;;;179.77;;
11039;SDS011;5573;49.592;8.662;2023-08-06T12:21:09;188.82;;;179.30;;
11039;SDS011;5573;49.592;8.662;2023-08-06T12:23:57;190.20;;;180.50;;
11039;SDS011;5573;49.592;8.662;2023-08-06T12:26:25;213.48;;;202.68;;
11039;SDS011;5573;49.592;8.662;2023-08-06T12:28:53;209.50;;;198.88;;
11039;SDS011;5573;49.592;8.662;2023-08-06T12:31:21;220.93;;;209.85;;
11039;SDS011;5573;49.592;8.662;2023-08-06T12:33:49;223.05;;;211.73;;
11039;SDS011;5573;49.592;8.662;2023-08-06T12:36:17;216.57;;;205.55;;
11039;SDS011;5573;49.592;8.662;2023-08-06T12:38:45;202.25;;;192.07;;
11039;SDS011;5573;49.592;8.662;2023-08-06T12:41:14;212.63;;;201.88;;
11039;SDS011;5573;49.592;8.662;2023-08-06T12:43:42;199.68;;;189.45;;
11039;SDS011;5573;49.592;8.662;2023-08-06T12:46:10;197.63;;;187.45;;
11039;SDS011;5573;49.592;8.662;2023-08-06T12:48:38;193.52;;;183.57;;
11039;SDS011;5573;49.592;8.662;2023-08-06T12:51:06;183.35;;;173.82;;
11039;SDS011;5573;49.592;8.662;2023-08-06T12:53:34;183.05;;;173.75;;
11039;SDS011;5573;49.592;8.662;2023-08-06T12:56:02;166.65;;;158.02;;
11039;SDS011;5573;49.592;8.662;2023-08-06T12:58:32;162.45;;;154.10;;
11039;SDS011;5573;49.592;8.662;2023-08-06T13:00:59;155.00;;;147.07;;
11039;SDS011;5573;49.592;8.662;2023-08-06T13:03:28;164.93;;;156.32;;
11039;SDS011;5573;49.592;8.662;2023-08-06T13:05:58;165.40;;;156.73;;
11039;SDS011;5573;49.592;8.662;2023-08-06T13:08:26;163.20;;;154.65;;
11039;SDS011;5573;49.592;8.662;2023-08-06T13:10:54;155.18;;;147.18;;
11039;SDS011;5573;49.592;8.662;2023-08-06T13:13:22;166.55;;;157.85;;
11039;SDS011;5573;49.592;8.662;2023-08-06T13:15:54;189.90;;;180.23;;
11039;SDS011;5573;49.592;8.662;2023-08-06T13:18:22;191.32;;;181.57;;
11039;SDS011;5573;49.592;8.662;2023-08-06T13:20:51;182.88;;;173.60;;
11039;SDS011;5573;49.592;8.662;2023-08-06T13:23:20;171.05;;;162.25;;
11039;SDS011;5573;49.592;8.662;2023-08-06T13:25:49;172.25;;;163.25;;
11039;SDS011;5573;49.592;8.662;2023-08-06T13:28:16;167.48;;;158.85;;
11039;SDS011;5573;49.592;8.662;2023-08-06T13:30:45;159.85;;;151.73;;
11039;SDS011;5573;49.592;8.662;2023-08-06T13:33:14;158.68;;;150.48;;
11039;SDS011;5573;49.592;8.662;2023-08-06T13:35:42;147.55;;;139.98;;
11039;SDS011;5573;49.592;8.662;2023-08-06T13:38:10;157.90;;;149.70;;
11039;SDS011;5573;49.592;8.662;2023-08-06T13:40:38;149.25;;;141.57;;
11039;SDS011;5573;49.592;8.662;2023-08-06T13:43:06;166.55;;;158.00;;
11039;SDS011;5573;49.592;8.662;2023-08-06T13:45:34;171.23;;;162.32;;
11039;SDS011;5573;49.592;8.662;2023-08-06T13:48:04;164.68;;;156.10;;
11039;SDS011;5573;49.592;8.662;2023-08-06T13:50:34;165.35;;;156.85;;
11039;SDS011;5573;49.592;8.662;2023-08-06T13:53:06;178.50;;;169.30;;
11039;SDS011;5573;49.592;8.662;2023-08-06T13:55:34;187.65;;;177.98;;
11039;SDS011;5573;49.592;8.662;2023-08-06T13:58:02;188.07;;;178.52;;
11039;SDS011;5573;49.592;8.662;2023-08-06T14:00:30;198.85;;;188.85;;
11039;SDS011;5573;49.592;8.662;2023-08-06T14:02:58;208.50;;;198.18;;
11039;SDS011;5573;49.592;8.662;2023-08-06T14:05:26;186.85;;;177.38;;
11039;SDS011;5573;49.592;8.662;2023-08-06T14:07:55;198.70;;;188.60;;
11039;SDS011;5573;49.592;8.662;2023-08-06T14:10:23;203.32;;;193.10;;
11039;SDS011;5573;49.592;8.662;2023-08-06T14:12:51;188.38;;;178.85;;
11039;SDS011;5573;49.592;8.662;2023-08-06T14:15:34;196.48;;;186.50;;
11039;SDS011;5573;49.592;8.662;2023-08-06T14:18:02;206.38;;;195.88;;
11039;SDS011;5573;49.592;8.662;2023-08-06T14:20:30;200.43;;;190.20;;
11039;SDS011;5573;49.592;8.662;2023-08-06T14:22:59;209.77;;;199.15;;
11039;SDS011;5573;49.592;8.662;2023-08-06T14:25:27;203.07;;;192.93;;